Time;durP1;ratioP1;P1;durP2;ratioP2;P2;SDS_P1;SDS_P2;PMS_P1;PMS_P2;Temp;Humidity;BMP_temperature;BMP_pressure;BME280_temperature;BME280_humidity;BME280_pressure;Samples;Min_cycle;Max_cycle;Signal;HPM_P1;HPM_P2
2023/01/14 00:02:24;;;;;;;13.30;2.53;;;7.90;1.00;;;;;;4918147;29;20649;-73
2023/01/14 00:04:50;;;;;;;8.63;2.57;;;7.80;1.00;;;;;;4934166;29;20560;-73
2023/01/14 00:07:16;;;;;;;11.30;2.50;;;7.80;1.00;;;;;;4914068;29;20289;-73
2023/01/14 00:09:42;;;;;;;16.00;2.60;;;7.80;1.00;;;;;;4914511;29;20190;-73
2023/01/14 00:12:08;;;;;;;17.30;2.60;;;7.70;1.00;;;;;;4918191;29;20470;-73
2023/01/14 00:14:33;;;;;;;12.80;2.40;;;7.70;1.00;;;;;;4914640;29;20804;-74
2023/01/14 00:17:00;;;;;;;13.00;2.30;;;7.60;1.00;;;;;;4912052;29;20204;-73
2023/01/14 00:19:27;;;;;;;5.63;2.70;;;7.60;1.00;;;;;;4945597;28;20181;-73
2023/01/14 00:21:54;;;;;;;16.30;3.17;;;7.60;1.00;;;;;;4913001;29;20446;-74
2023/01/14 00:24:21;;;;;;;7.30;2.10;;;7.50;1.00;;;;;;4913861;29;20438;-74
2023/01/14 00:26:50;;;;;;;12.23;2.80;;;7.50;1.00;;;;;;4913344;29;20461;-73
2023/01/14 00:29:18;;;;;;;10.77;2.80;;;7.50;1.00;;;;;;4914079;29;20432;-73
2023/01/14 00:31:44;;;;;;;6.47;2.57;;;7.50;1.00;;;;;;4911947;29;20465;-73
2023/01/14 00:34:11;;;;;;;15.27;2.70;;;7.40;1.00;;;;;;4913896;29;20432;-71
2023/01/14 00:36:36;;;;;;;10.20;2.30;;;7.40;1.00;;;;;;4914000;29;20461;-71
2023/01/14 00:39:02;;;;;;;11.70;2.40;;;7.50;1.00;;;;;;4929784;29;20507;-73
2023/01/14 00:41:28;;;;;;;7.13;2.13;;;7.40;1.00;;;;;;4911910;29;20276;-73
2023/01/14 00:43:57;;;;;;;15.63;3.83;;;7.40;1.00;;;;;;4912697;29;20441;-74
2023/01/14 00:46:26;;;;;;;15.50;4.20;;;8.50;1.00;;;;;;4919377;29;20509;-73
2023/01/14 00:48:52;;;;;;;11.60;2.50;;;7.40;1.00;;;;;;4912720;29;20458;-73
2023/01/14 00:51:19;;;;;;;14.27;3.50;;;7.40;1.00;;;;;;4911475;29;20496;-73
2023/01/14 00:53:47;;;;;;;11.73;2.53;;;7.40;1.00;;;;;;4911471;29;20186;-71
2023/01/14 00:56:15;;;;;;;7.87;2.17;;;7.40;1.00;;;;;;4914577;29;20462;-73
2023/01/14 00:58:41;;;;;;;14.03;2.57;;;7.40;1.00;;;;;;4912788;29;20473;-73
2023/01/14 01:01:07;;;;;;;13.03;3.23;;;7.40;1.00;;;;;;4912658;29;20493;-73
2023/01/14 01:03:38;;;;;;;16.73;2.60;;;7.50;1.00;;;;;;4913502;29;20445;-72
2023/01/14 01:06:03;;;;;;;11.27;2.40;;;7.50;1.00;;;;;;4913118;29;20500;-73
2023/01/14 01:08:29;;;;;;;10.33;2.57;;;7.50;1.00;;;;;;4921649;29;20441;-73
2023/01/14 01:10:56;;;;;;;14.43;2.90;;;7.50;1.00;;;;;;4913133;29;20652;-73
2023/01/14 01:13:22;;;;;;;9.07;2.63;;;7.50;1.00;;;;;;4908184;29;20189;-73
2023/01/14 01:15:48;;;;;;;12.77;3.40;;;7.40;1.00;;;;;;4947727;29;20462;-73
2023/01/14 01:18:14;;;;;;;10.20;3.00;;;7.40;1.00;;;;;;4923458;29;20453;-73
2023/01/14 01:20:40;;;;;;;8.97;2.77;;;7.40;1.00;;;;;;4922072;29;20671;-73
2023/01/14 01:23:08;;;;;;;28.47;3.90;;;7.40;1.00;;;;;;4928455;29;20437;-73
2023/01/14 01:25:34;;;;;;;9.60;2.53;;;7.40;1.00;;;;;;4920693;29;20197;-73
2023/01/14 01:28:00;;;;;;;6.40;2.57;;;7.40;1.00;;;;;;4927032;29;20447;-73
2023/01/14 01:30:26;;;;;;;19.37;3.43;;;7.40;1.00;;;;;;4921750;29;20228;-73
2023/01/14 01:32:52;;;;;;;12.47;2.80;;;7.70;1.00;;;;;;4935222;29;20250;-73
2023/01/14 01:35:18;;;;;;;13.87;2.50;;;7.40;1.00;;;;;;4930484;29;20543;-74
2023/01/14 01:37:44;;;;;;;15.33;2.80;;;7.30;1.00;;;;;;4926970;29;20536;-74
2023/01/14 01:40:11;;;;;;;9.40;2.37;;;7.30;1.00;;;;;;4919868;29;20209;-73
2023/01/14 01:42:54;;;;;;;8.87;2.50;;;7.20;1.00;;;;;;4917795;29;20194;-74
2023/01/14 01:45:47;;;;;;;13.67;2.83;;;7.20;1.00;;;;;;4915726;29;20523;-73
2023/01/14 01:48:35;;;;;;;10.23;2.80;;;7.10;1.00;;;;;;4916025;29;20437;-74
2023/01/14 01:51:06;;;;;;;7.90;2.77;;;7.10;1.00;;;;;;4914153;29;20969;-73
2023/01/14 01:53:43;;;;;;;10.90;3.00;;;7.10;1.00;;;;;;4910029;29;20833;-72
2023/01/14 01:56:14;;;;;;;12.70;3.17;;;7.00;1.00;;;;;;4914351;29;20463;-74
2023/01/14 01:58:40;;;;;;;11.20;2.97;;;7.00;1.00;;;;;;4921041;29;20448;-73
2023/01/14 02:01:06;;;;;;;12.70;2.40;;;7.00;1.00;;;;;;4933248;29;20436;-73
2023/01/14 02:03:47;;;;;;;10.57;2.20;;;7.00;1.00;;;;;;4919578;29;20264;-74
2023/01/14 02:06:13;;;;;;;9.30;2.53;;;6.90;1.00;;;;;;4924107;29;20205;-73
2023/01/14 02:08:42;;;;;;;9.50;2.70;;;6.90;1.00;;;;;;4920005;29;20867;-75
2023/01/14 02:11:35;;;;;;;8.60;2.47;;;6.90;1.00;;;;;;4915209;29;20445;-73
2023/01/14 02:14:34;;;;;;;8.77;3.00;;;6.90;1.00;;;;;;4914756;29;20437;-72
2023/01/14 02:17:11;;;;;;;7.20;2.40;;;6.90;1.00;;;;;;4916591;29;20441;-73
2023/01/14 02:20:02;;;;;;;7.20;2.50;;;6.90;1.00;;;;;;4917690;29;20469;-74
2023/01/14 02:23:13;;;;;;;7.67;2.43;;;6.90;1.00;;;;;;4910327;29;20533;-73
2023/01/14 02:25:57;;;;;;;11.37;2.67;;;6.80;1.00;;;;;;4921750;29;20540;-73
2023/01/14 02:28:50;;;;;;;16.73;3.00;;;6.80;1.00;;;;;;4934997;29;20444;-73
2023/01/14 02:31:28;;;;;;;5.97;2.30;;;6.70;1.00;;;;;;4918615;29;20476;-73
2023/01/14 02:34:10;;;;;;;14.57;3.03;;;6.70;1.00;;;;;;4928200;29;20436;-74
2023/01/14 02:36:51;;;;;;;10.80;2.57;;;6.70;1.00;;;;;;4915383;29;20457;-73
2023/01/14 02:39:35;;;;;;;15.33;2.77;;;6.80;1.00;;;;;;4931427;29;20433;-74
2023/01/14 02:45:05;;;;;;;12.00;2.63;;;6.70;1.00;;;;;;4923380;29;21083;-74
2023/01/14 02:47:32;;;;;;;11.13;2.57;;;6.70;1.00;;;;;;4908940;29;20537;-73
2023/01/14 02:49:59;;;;;;;13.73;2.60;;;6.70;1.00;;;;;;4922970;29;20453;-72
2023/01/14 02:52:25;;;;;;;13.13;2.43;;;6.70;1.00;;;;;;4946509;29;20484;-71
2023/01/14 02:54:55;;;;;;;8.20;2.40;;;6.70;1.00;;;;;;4913233;29;20461;-73
2023/01/14 02:57:44;;;;;;;16.90;2.77;;;6.70;1.00;;;;;;4915615;29;20442;-73
2023/01/14 03:00:50;;;;;;;11.23;2.57;;;6.70;1.00;;;;;;4915798;29;20446;-73
2023/01/14 03:03:41;;;;;;;12.90;2.57;;;6.70;1.00;;;;;;4909454;29;20449;-74
2023/01/14 03:06:23;;;;;;;9.27;2.10;;;6.70;1.00;;;;;;4914011;29;20579;-73
2023/01/14 03:09:00;;;;;;;7.87;2.53;;;6.70;1.00;;;;;;4928657;29;20448;-73
2023/01/14 03:11:43;;;;;;;5.00;1.93;;;6.70;1.00;;;;;;4912750;29;20480;-72
2023/01/14 03:14:21;;;;;;;11.63;2.67;;;6.80;1.00;;;;;;4914477;29;20830;-73
2023/01/14 03:17:13;;;;;;;11.47;2.37;;;6.80;1.00;;;;;;4943461;29;20477;-74
2023/01/14 03:19:47;;;;;;;5.60;2.67;;;6.80;1.00;;;;;;4924279;29;20856;-73
2023/01/14 03:22:13;;;;;;;7.07;2.10;;;6.80;1.00;;;;;;4921952;29;20915;-73
2023/01/14 03:24:44;;;;;;;6.63;2.10;;;6.80;1.00;;;;;;4915238;29;20430;-73
2023/01/14 03:27:18;;;;;;;11.67;2.27;;;6.80;1.00;;;;;;4915361;29;20978;-73
2023/01/14 03:29:48;;;;;;;14.03;2.47;;;6.80;1.00;;;;;;4913262;29;20972;-73
2023/01/14 03:32:25;;;;;;;10.73;3.00;;;6.80;1.00;;;;;;4913952;29;20836;-74
2023/01/14 03:35:10;;;;;;;23.90;3.10;;;6.80;1.00;;;;;;4913532;29;20469;-73
2023/01/14 03:37:41;;;;;;;21.73;3.07;;;6.80;1.00;;;;;;4911268;29;20925;-73
2023/01/14 03:40:11;;;;;;;11.97;2.73;;;6.80;1.00;;;;;;4929629;29;20444;-73
2023/01/14 03:42:42;;;;;;;9.50;2.60;;;6.80;1.00;;;;;;4914129;29;20449;-74
2023/01/14 03:45:18;;;;;;;18.70;2.33;;;6.80;1.00;;;;;;4916188;29;20466;-73
2023/01/14 03:47:45;;;;;;;7.33;2.30;;;6.70;1.00;;;;;;4946733;28;20444;-74
2023/01/14 03:50:14;;;;;;;10.73;2.30;;;6.70;1.00;;;;;;4946199;28;20856;-73
2023/01/14 03:53:08;;;;;;;7.93;2.77;;;6.60;1.00;;;;;;4927746;29;20999;-73
2023/01/14 03:56:16;;;;;;;12.37;2.40;;;6.60;1.00;;;;;;4945164;29;20498;-73
2023/01/14 03:58:52;;;;;;;12.03;2.50;;;6.60;1.00;;;;;;4906130;29;20446;-73
2023/01/14 04:01:41;;;;;;;10.23;2.43;;;6.50;1.00;;;;;;4945957;29;20776;-74
2023/01/14 04:04:07;;;;;;;11.70;2.60;;;6.60;1.00;;;;;;4913427;29;20453;-73
2023/01/14 04:06:33;;;;;;;5.13;2.30;;;6.60;1.00;;;;;;4912743;29;20909;-73
2023/01/14 04:08:59;;;;;;;10.77;2.40;;;6.60;1.00;;;;;;4941470;29;20478;-72
2023/01/14 04:11:24;;;;;;;16.00;3.23;;;6.60;1.00;;;;;;4930568;29;20209;-73
2023/01/14 04:16:34;;;;;;;12.10;2.30;;;6.70;1.00;;;;;;4923979;29;20208;-73
2023/01/14 04:18:59;;;;;;;14.90;3.57;;;6.70;1.00;;;;;;4923462;29;20445;-72
2023/01/14 04:21:25;;;;;;;7.17;2.93;;;6.70;1.00;;;;;;4925813;29;20392;-73
2023/01/14 04:23:50;;;;;;;11.70;2.60;;;6.80;1.00;;;;;;4922975;29;20230;-74
2023/01/14 04:26:16;;;;;;;9.47;2.60;;;6.80;1.00;;;;;;4922396;29;20345;-74
2023/01/14 04:28:41;;;;;;;13.40;3.40;;;6.90;1.00;;;;;;4916302;29;20705;-73
2023/01/14 04:31:07;;;;;;;11.27;2.70;;;6.90;1.00;;;;;;4921852;29;20181;-73
2023/01/14 04:33:32;;;;;;;13.33;2.40;;;6.90;1.00;;;;;;4923261;29;20601;-74
2023/01/14 04:35:58;;;;;;;7.30;2.50;;;6.80;1.00;;;;;;4944684;28;20216;-74
2023/01/14 04:38:24;;;;;;;10.50;2.80;;;8.00;1.00;;;;;;4924480;29;20193;-73
2023/01/14 04:40:56;;;;;;;11.57;2.93;;;6.90;1.00;;;;;;4924994;29;20197;-73
2023/01/14 04:43:22;;;;;;;10.40;3.47;;;6.90;1.00;;;;;;4920569;29;20477;-73
2023/01/14 04:45:52;;;;;;;8.10;2.37;;;6.90;1.00;;;;;;4944415;28;21715;-73
2023/01/14 04:48:18;;;;;;;6.30;2.00;;;6.90;1.00;;;;;;4914273;29;20466;-73
2023/01/14 04:50:46;;;;;;;11.63;2.50;;;6.90;1.00;;;;;;4912168;29;20442;-73
2023/01/14 04:53:17;;;;;;;10.20;2.33;;;7.00;1.00;;;;;;4925911;29;20540;-72
2023/01/14 04:55:45;;;;;;;15.43;2.90;;;7.00;1.00;;;;;;4925944;29;20474;-73
2023/01/14 04:58:14;;;;;;;7.27;2.17;;;7.00;1.00;;;;;;4912609;29;20438;-73
2023/01/14 05:00:40;;;;;;;7.70;2.50;;;7.00;1.00;;;;;;4913694;29;20441;-73
2023/01/14 05:03:09;;;;;;;10.37;2.30;;;7.00;1.00;;;;;;4914292;29;20477;-75
2023/01/14 05:05:36;;;;;;;13.00;3.07;;;7.10;1.00;;;;;;4913502;29;20459;-74
2023/01/14 05:08:03;;;;;;;13.47;2.50;;;7.10;1.00;;;;;;4919567;29;21157;-73
2023/01/14 05:10:29;;;;;;;10.53;2.70;;;7.20;1.00;;;;;;4921922;29;20819;-74
2023/01/14 05:12:58;;;;;;;11.10;2.93;;;7.20;1.00;;;;;;4944158;29;20466;-73
2023/01/14 05:15:32;;;;;;;9.53;3.07;;;7.20;1.00;;;;;;4906832;29;20540;-73
2023/01/14 05:17:58;;;;;;;14.27;3.10;;;7.20;1.00;;;;;;4907296;29;20508;-73
2023/01/14 05:20:25;;;;;;;7.53;2.77;;;7.20;1.00;;;;;;4905451;29;20496;-73
2023/01/14 05:22:51;;;;;;;11.10;2.90;;;7.10;1.00;;;;;;4940365;28;20446;-73
2023/01/14 05:25:17;;;;;;;10.27;2.73;;;7.20;1.00;;;;;;4944498;29;20453;-73
2023/01/14 05:27:43;;;;;;;13.27;2.63;;;7.20;1.00;;;;;;4912946;29;20932;-72
2023/01/14 05:30:09;;;;;;;10.37;2.60;;;7.20;1.00;;;;;;4942621;28;20528;-72
2023/01/14 05:32:35;;;;;;;12.93;2.87;;;7.10;1.00;;;;;;4914647;29;20206;-73
2023/01/14 05:35:00;;;;;;;12.50;2.57;;;7.20;1.00;;;;;;4919526;29;20523;-73
2023/01/14 05:37:26;;;;;;;9.00;2.67;;;7.20;1.00;;;;;;4916660;29;20229;-73
2023/01/14 05:39:51;;;;;;;7.90;2.43;;;7.20;1.00;;;;;;4924837;29;20183;-73
2023/01/14 05:47:45;;;;;;;10.00;2.23;;;7.30;1.00;;;;;;4912101;29;20452;-73
2023/01/14 05:50:12;;;;;;;15.10;2.40;;;7.30;1.00;;;;;;4911751;29;20434;-72
2023/01/14 05:52:37;;;;;;;7.90;2.07;;;7.30;1.00;;;;;;4914726;29;20209;-72
2023/01/14 05:55:04;;;;;;;4.97;2.27;;;7.30;1.00;;;;;;4913812;29;20987;-74
2023/01/14 05:57:29;;;;;;;5.73;2.27;;;7.30;1.00;;;;;;4916830;29;20794;-73
2023/01/14 05:59:55;;;;;;;6.77;2.10;;;7.30;1.00;;;;;;4935025;29;20524;-73
2023/01/14 06:07:49;;;;;;;8.57;2.00;;;7.10;1.00;;;;;;4916999;29;20451;-73
2023/01/14 06:10:15;;;;;;;9.63;2.57;;;7.00;1.00;;;;;;4924761;29;20445;-73
2023/01/14 06:13:14;;;;;;;11.67;2.30;;;7.10;1.00;;;;;;4947907;28;20233;-73
2023/01/14 06:15:36;;;;;;;7.00;2.40;;;7.10;1.00;;;;;;4913940;29;20224;-73
2023/01/14 06:18:10;;;;;;;11.07;2.47;;;7.20;1.00;;;;;;4910436;29;20955;-73
2023/01/14 06:20:38;;;;;;;7.07;2.10;;;7.20;1.00;;;;;;4915368;29;20446;-72
2023/01/14 06:23:05;;;;;;;7.83;1.83;;;7.10;1.00;;;;;;4946840;28;20436;-74
2023/01/14 06:25:32;;;;;;;5.93;1.87;;;7.10;1.00;;;;;;4915260;29;20466;-73
2023/01/14 06:27:58;;;;;;;3.97;2.00;;;7.10;1.00;;;;;;4912936;29;20853;-72
2023/01/14 06:30:24;;;;;;;7.13;2.07;;;7.00;1.00;;;;;;4932207;29;20441;-73
2023/01/14 06:32:49;;;;;;;8.50;2.40;;;7.00;1.00;;;;;;4923600;29;20588;-73
2023/01/14 06:35:15;;;;;;;7.70;2.43;;;7.00;1.00;;;;;;4924705;29;20525;-74
2023/01/14 06:37:45;;;;;;;10.70;2.20;;;7.00;1.00;;;;;;4943335;29;20535;-73
2023/01/14 06:40:12;;;;;;;9.73;1.97;;;7.00;1.00;;;;;;4919781;29;20186;-73
2023/01/14 06:42:38;;;;;;;10.17;1.97;;;7.00;1.00;;;;;;4913153;29;20444;-73
2023/01/14 06:45:03;;;;;;;4.93;1.90;;;7.10;1.00;;;;;;4946123;29;20521;-73
2023/01/14 06:47:29;;;;;;;9.43;2.23;;;7.10;1.00;;;;;;4919590;29;20446;-73
2023/01/14 06:49:54;;;;;;;7.63;2.47;;;7.20;1.00;;;;;;4916132;29;20197;-73
2023/01/14 06:52:21;;;;;;;9.70;2.63;;;7.90;1.00;;;;;;4923027;29;20197;-73
2023/01/14 06:54:47;;;;;;;10.90;2.77;;;7.30;1.00;;;;;;4916204;29;20327;-73
2023/01/14 06:57:13;;;;;;;9.50;2.50;;;7.40;1.00;;;;;;4915659;29;20437;-73
2023/01/14 06:59:38;;;;;;;12.57;2.60;;;7.40;1.00;;;;;;4929467;29;20426;-73
2023/01/14 07:02:04;;;;;;;6.40;2.37;;;7.50;1.00;;;;;;4925849;29;20446;-74
2023/01/14 07:04:29;;;;;;;6.43;2.23;;;7.50;1.00;;;;;;4923333;29;20197;-73
2023/01/14 07:06:55;;;;;;;9.30;2.40;;;7.60;1.00;;;;;;4923771;29;20266;-73
2023/01/14 07:09:20;;;;;;;8.90;2.13;;;7.60;1.00;;;;;;4913980;29;20264;-73
2023/01/14 07:11:46;;;;;;;6.00;2.10;;;7.60;1.00;;;;;;4913186;29;20274;-74
2023/01/14 07:14:11;;;;;;;5.73;1.87;;;8.90;1.00;;;;;;4912857;29;20680;-71
2023/01/14 07:16:37;;;;;;;7.33;2.60;;;7.60;1.00;;;;;;4906591;29;20668;-73
2023/01/14 07:19:03;;;;;;;8.70;2.00;;;7.60;1.00;;;;;;4915313;29;20200;-73
2023/01/14 07:21:28;;;;;;;10.43;2.67;;;7.70;1.00;;;;;;4917315;29;20192;-71
2023/01/14 07:23:54;;;;;;;13.97;2.73;;;7.70;1.00;;;;;;4918689;29;20213;-73
2023/01/14 07:26:19;;;;;;;14.40;5.80;;;7.70;1.00;;;;;;4913299;29;20293;-73
2023/01/14 07:28:45;;;;;;;15.57;6.10;;;7.80;1.00;;;;;;4923356;29;20465;-72
2023/01/14 07:31:10;;;;;;;10.17;3.70;;;7.80;1.00;;;;;;4917160;29;20190;-73
2023/01/14 07:33:36;;;;;;;10.03;2.70;;;7.90;1.00;;;;;;4928044;29;20185;-73
2023/01/14 07:36:02;;;;;;;14.07;3.03;;;7.90;1.00;;;;;;4926057;29;20233;-73
2023/01/14 07:38:27;;;;;;;3.73;1.53;;;7.90;1.00;;;;;;4914055;29;20268;-75
2023/01/14 07:40:54;;;;;;;6.00;2.00;;;7.90;1.00;;;;;;4917933;29;20521;-72
2023/01/14 07:43:20;;;;;;;8.20;2.60;;;7.90;1.00;;;;;;4936294;28;20193;-73
2023/01/14 07:45:46;;;;;;;19.60;4.00;;;7.90;1.00;;;;;;4926593;29;20463;-74
2023/01/14 07:48:12;;;;;;;17.90;5.07;;;8.00;1.00;;;;;;4921982;29;20200;-73
2023/01/14 07:50:37;;;;;;;16.20;3.83;;;7.90;1.00;;;;;;4920581;29;20209;-73
2023/01/14 07:53:03;;;;;;;13.57;4.47;;;;;;;;;;4933967;29;20209;-73
2023/01/14 07:55:29;;;;;;;14.43;5.07;;;8.00;1.00;;;;;;4921277;29;20205;-73
2023/01/14 07:57:54;;;;;;;15.40;6.60;;;8.00;1.00;;;;;;4921537;29;20189;-74
2023/01/14 08:00:20;;;;;;;16.97;5.23;;;8.00;1.00;;;;;;4929216;29;20344;-73
2023/01/14 08:02:46;;;;;;;18.70;7.13;;;8.00;1.00;;;;;;4925805;29;20208;-73
2023/01/14 08:05:12;;;;;;;14.80;6.00;;;8.10;1.00;;;;;;4921750;29;20800;-72
2023/01/14 08:07:38;;;;;;;22.23;8.17;;;8.10;1.00;;;;;;4913100;29;20231;-73
2023/01/14 08:10:04;;;;;;;10.47;3.03;;;8.10;1.00;;;;;;4914828;29;20193;-73
2023/01/14 08:12:32;;;;;;;5.33;2.13;;;8.20;1.00;;;;;;4913736;29;20327;-73
2023/01/14 08:15:00;;;;;;;7.30;2.53;;;8.20;1.00;;;;;;4920679;29;20469;-74
2023/01/14 08:17:26;;;;;;;11.17;2.27;;;8.30;1.00;;;;;;4909918;29;20537;-73
2023/01/14 08:19:51;;;;;;;12.93;2.37;;;8.30;1.00;;;;;;4912269;29;20536;-71
2023/01/14 08:22:17;;;;;;;12.13;2.37;;;8.40;1.00;;;;;;4914544;29;20201;-73
2023/01/14 08:24:43;;;;;;;9.20;2.90;;;8.30;1.00;;;;;;4913009;29;20186;-73
2023/01/14 08:27:08;;;;;;;8.20;2.10;;;8.40;1.00;;;;;;4911370;29;20193;-73
2023/01/14 08:29:34;;;;;;;6.30;2.40;;;8.50;1.00;;;;;;4974387;23;20533;-75
2023/01/14 08:31:59;;;;;;;7.50;2.37;;;8.60;1.00;;;;;;4967525;28;20215;-76
2023/01/14 08:34:25;;;;;;;9.30;2.73;;;8.70;1.00;;;;;;4969489;28;20226;-76
2023/01/14 08:36:51;;;;;;;11.83;2.70;;;8.70;1.00;;;;;;4971267;28;20187;-76
2023/01/14 08:39:17;;;;;;;7.23;2.43;;;8.70;1.00;;;;;;4971166;28;20262;-77
2023/01/14 08:41:43;;;;;;;8.57;2.27;;;8.80;1.00;;;;;;4971911;28;20546;-76
2023/01/14 08:44:09;;;;;;;10.03;2.70;;;8.70;1.00;;;;;;4970838;28;20801;-76
2023/01/14 08:46:35;;;;;;;8.30;2.57;;;8.80;1.00;;;;;;4970796;28;20433;-76
2023/01/14 08:49:01;;;;;;;14.17;2.90;;;8.70;1.00;;;;;;4970389;28;20451;-76
2023/01/14 08:51:28;;;;;;;13.93;2.40;;;8.80;1.00;;;;;;4963372;28;20298;-76
2023/01/14 08:54:00;;;;;;;7.97;2.07;;;8.80;1.00;;;;;;4971450;28;20176;-77
2023/01/14 08:56:26;;;;;;;10.87;2.37;;;8.80;1.00;;;;;;4970656;28;20443;-76
2023/01/14 08:58:52;;;;;;;8.00;2.57;;;8.80;1.00;;;;;;4969922;28;20482;-77
2023/01/14 09:01:17;;;;;;;6.73;2.60;;;8.80;1.00;;;;;;4970620;28;20254;-77
2023/01/14 09:03:45;;;;;;;7.07;2.97;;;8.80;1.00;;;;;;4971304;28;20585;-77
2023/01/14 09:06:13;;;;;;;7.67;2.20;;;8.80;1.00;;;;;;4970218;28;20184;-80
2023/01/14 09:17:05;;;;;;;7.20;2.80;;;8.90;1.00;;;;;;4966762;28;20552;-76
2023/01/14 09:19:36;;;;;;;8.70;2.37;;;8.90;1.00;;;;;;4969318;28;20526;-76
2023/01/14 09:22:03;;;;;;;10.30;2.63;;;8.90;1.00;;;;;;4965656;28;21134;-74
2023/01/14 09:24:28;;;;;;;8.57;2.37;;;9.00;1.00;;;;;;4970725;28;20435;-76
2023/01/14 09:26:54;;;;;;;7.80;2.50;;;9.00;1.00;;;;;;4970242;28;20928;-76
2023/01/14 09:29:19;;;;;;;8.33;2.60;;;9.10;1.00;;;;;;4969971;28;20697;-76
2023/01/14 09:31:44;;;;;;;5.33;2.30;;;9.20;1.00;;;;;;4971012;28;20218;-74
2023/01/14 09:34:11;;;;;;;12.20;2.87;;;9.20;1.00;;;;;;4971850;28;20187;-74
2023/01/14 09:36:36;;;;;;;13.03;2.93;;;9.20;1.00;;;;;;4973311;28;20180;-75
2023/01/14 09:39:02;;;;;;;9.63;2.67;;;9.20;1.00;;;;;;4974165;28;20806;-74
2023/01/14 09:41:36;;;;;;;6.33;2.20;;;9.20;1.00;;;;;;4974808;28;20187;-74
2023/01/14 09:44:05;;;;;;;5.67;2.00;;;9.30;1.00;;;;;;4978485;28;20265;-73
2023/01/14 09:46:32;;;;;;;7.93;2.20;;;9.50;1.00;;;;;;4972876;28;20943;-74
2023/01/14 09:49:01;;;;;;;12.03;2.00;;;9.70;1.00;;;;;;4973590;28;20481;-74
2023/01/14 09:51:46;;;;;;;6.07;2.00;;;9.80;1.00;;;;;;4968379;28;20463;-74
2023/01/14 09:54:44;;;;;;;6.70;2.03;;;9.90;1.00;;;;;;4973366;28;20489;-74
2023/01/14 09:57:47;;;;;;;10.37;2.43;;;9.90;1.00;;;;;;4973242;28;20431;-75
2023/01/14 10:00:34;;;;;;;9.97;2.40;;;10.10;1.00;;;;;;4971804;28;21028;-75
2023/01/14 10:03:17;;;;;;;10.67;2.20;;;10.10;1.00;;;;;;4970535;28;20427;-74
2023/01/14 10:05:54;;;;;;;4.43;1.93;;;10.20;1.00;;;;;;4973114;28;20961;-75
2023/01/14 10:08:22;;;;;;;6.43;2.00;;;10.30;1.00;;;;;;4973058;28;20442;-75
2023/01/14 10:10:48;;;;;;;6.90;2.10;;;10.30;1.00;;;;;;4971456;28;20431;-79
2023/01/14 10:13:20;;;;;;;5.30;2.20;;;10.20;1.00;;;;;;4973567;28;20462;-76
2023/01/14 10:16:02;;;;;;;6.03;2.00;;;10.20;1.00;;;;;;4972937;28;20514;-76
2023/01/14 10:18:48;;;;;;;8.03;2.07;;;10.10;1.00;;;;;;4971558;28;20537;-76
2023/01/14 10:21:25;;;;;;;5.80;2.37;;;10.10;1.00;;;;;;4973315;28;20979;-76
2023/01/14 10:23:51;;;;;;;8.67;2.03;;;10.10;1.00;;;;;;4970979;28;20431;-76
2023/01/14 10:26:18;;;;;;;6.10;2.20;;;10.10;1.00;;;;;;4971943;28;20423;-76
2023/01/14 10:28:50;;;;;;;6.50;1.93;;;10.10;1.00;;;;;;4973204;28;20267;-76
2023/01/14 10:31:20;;;;;;;7.10;2.53;;;10.10;1.00;;;;;;4973243;28;20426;-76
2023/01/14 10:33:46;;;;;;;8.93;2.60;;;10.20;1.00;;;;;;4971181;28;20434;-76
2023/01/14 10:36:16;;;;;;;7.50;2.50;;;10.20;1.00;;;;;;4970758;28;20467;-77
2023/01/14 10:38:42;;;;;;;5.80;2.00;;;10.30;1.00;;;;;;4973039;28;20443;-76
2023/01/14 10:41:08;;;;;;;5.10;2.23;;;10.30;1.00;;;;;;4972828;28;20435;-75
2023/01/14 10:43:44;;;;;;;4.17;2.10;;;10.20;1.00;;;;;;4970931;28;20183;-74
2023/01/14 10:46:17;;;;;;;6.40;2.20;;;10.20;1.00;;;;;;4971281;28;20438;-76
2023/01/14 10:49:04;;;;;;;7.67;2.40;;;10.20;1.00;;;;;;4972579;28;21208;-76
2023/01/14 10:51:37;;;;;;;4.33;1.73;;;10.20;1.00;;;;;;4972571;28;20435;-76
2023/01/14 10:54:09;;;;;;;8.77;2.00;;;10.20;1.00;;;;;;4972834;28;20554;-75
2023/01/14 10:56:35;;;;;;;4.10;1.70;;;10.30;1.00;;;;;;4982876;28;20436;-75
2023/01/14 10:59:01;;;;;;;5.70;1.83;;;10.30;1.00;;;;;;4970696;28;20495;-75
2023/01/14 11:01:26;;;;;;;4.53;1.63;;;10.30;1.00;;;;;;4970030;28;20199;-76
2023/01/14 11:03:52;;;;;;;6.93;1.97;;;10.40;1.00;;;;;;4970314;28;20179;-76
2023/01/14 11:06:18;;;;;;;8.97;2.17;;;10.40;1.00;;;;;;4970382;28;20669;-76
2023/01/14 11:08:53;;;;;;;4.80;1.80;;;10.50;1.00;;;;;;4972886;28;20657;-76
2023/01/14 11:11:36;;;;;;;4.50;1.50;;;10.60;1.00;;;;;;4972829;28;20226;-76
2023/01/14 11:14:31;;;;;;;3.23;1.60;;;10.70;1.00;;;;;;4972980;28;20427;-75
2023/01/14 11:16:57;;;;;;;6.60;2.40;;;10.80;1.00;;;;;;4967988;28;20467;-76
2023/01/14 11:19:24;;;;;;;4.70;1.60;;;10.90;1.00;;;;;;4972753;28;20527;-76
2023/01/14 11:22:00;;;;;;;3.10;1.57;;;10.90;1.00;;;;;;4973030;28;20441;-76
2023/01/14 11:24:30;;;;;;;15.20;8.27;;;10.90;1.00;;;;;;4972011;28;20474;-76
2023/01/14 11:27:02;;;;;;;14.90;3.13;;;10.90;1.00;;;;;;4972862;28;20458;-76
2023/01/14 11:29:36;;;;;;;11.30;2.90;;;11.00;1.00;;;;;;4972400;28;20459;-76
2023/01/14 11:32:09;;;;;;;3.93;1.63;;;11.10;1.00;;;;;;4971607;28;20916;-76
2023/01/14 11:34:39;;;;;;;4.27;1.60;;;11.20;1.00;;;;;;4964232;28;20793;-76
2023/01/14 11:37:09;;;;;;;5.13;1.83;;;11.20;1.00;;;;;;4971413;28;20434;-76
2023/01/14 11:39:36;;;;;;;4.53;2.90;;;11.20;1.00;;;;;;4964621;28;20474;-76
2023/01/14 11:42:20;;;;;;;6.00;3.73;;;11.20;1.00;;;;;;4972396;28;20501;-76
2023/01/14 11:44:56;;;;;;;5.27;1.67;;;11.20;1.00;;;;;;4965660;28;20498;-76
2023/01/14 11:47:22;;;;;;;4.97;1.90;;;11.10;1.00;;;;;;4972297;28;20921;-76
2023/01/14 11:49:49;;;;;;;8.67;1.70;;;11.10;1.00;;;;;;4971188;28;20988;-76
2023/01/14 11:52:20;;;;;;;3.23;1.30;;;11.00;1.00;;;;;;4971694;28;20471;-76
2023/01/14 11:54:51;;;;;;;2.90;1.50;;;11.00;1.00;;;;;;4971657;28;20459;-76
2023/01/14 11:57:20;;;;;;;2.00;1.40;;;11.00;1.00;;;;;;4971385;28;20429;-76
2023/01/14 11:59:46;;;;;;;2.13;1.47;;;11.00;1.00;;;;;;4972209;28;20479;-76
2023/01/14 12:02:34;;;;;;;2.07;1.53;;;10.90;1.00;;;;;;4970290;28;20466;-74
2023/01/14 12:05:04;;;;;;;4.10;1.50;;;10.90;1.00;;;;;;4971738;28;20218;-76
2023/01/14 12:07:39;;;;;;;4.27;1.90;;;10.90;1.00;;;;;;4971774;28;20844;-76
2023/01/14 12:10:15;;;;;;;3.17;1.60;;;10.90;1.00;;;;;;4970357;28;20505;-76
2023/01/14 12:18:35;;;;;;;2.37;1.33;;;10.80;1.00;;;;;;4971562;28;20485;-77
2023/01/14 12:21:03;;;;;;;3.47;1.47;;;10.90;1.00;;;;;;4971801;28;20439;-77
2023/01/14 12:23:33;;;;;;;3.77;1.57;;;10.90;1.00;;;;;;4971134;28;20442;-77
2023/01/14 12:26:31;;;;;;;3.63;1.30;;;10.90;1.00;;;;;;4971628;28;20438;-77
2023/01/14 12:29:00;;;;;;;3.10;1.73;;;11.00;1.00;;;;;;4965072;28;20455;-77
2023/01/14 12:31:37;;;;;;;2.60;1.40;;;11.00;1.00;;;;;;4970374;28;20423;-78
2023/01/14 12:34:17;;;;;;;1.97;1.30;;;11.00;1.00;;;;;;4971279;28;20423;-74
2023/01/14 12:37:08;;;;;;;1.67;1.10;;;11.00;1.00;;;;;;4971705;28;20415;-77
2023/01/14 12:45:49;;;;;;;3.27;1.47;;;11.10;1.00;;;;;;4969030;28;20594;-80
2023/01/14 12:48:20;;;;;;;2.37;1.27;;;11.10;1.00;;;;;;4972836;28;20844;-80
2023/01/14 12:50:56;;;;;;;2.33;1.43;;;11.10;1.00;;;;;;4971086;28;20454;-77
2023/01/14 12:53:26;;;;;;;2.20;1.17;;;11.20;1.00;;;;;;4969492;28;20486;-78
2023/01/14 12:55:55;;;;;;;5.73;1.50;;;11.20;1.00;;;;;;4971048;28;20872;-75
2023/01/14 12:58:24;;;;;;;4.97;1.20;;;11.40;1.00;;;;;;4971032;28;20541;-76
2023/01/14 13:00:54;;;;;;;6.00;1.50;;;11.80;1.00;;;;;;4971000;28;20447;-76
2023/01/14 13:03:38;;;;;;;3.83;1.50;;;11.60;1.00;;;;;;4970841;28;20419;-76
2023/01/14 13:06:14;;;;;;;2.10;1.30;;;11.30;1.00;;;;;;4970996;28;20531;-77
2023/01/14 13:08:41;;;;;;;2.23;1.23;;;11.30;1.00;;;;;;4964623;28;20500;-76
2023/01/14 13:11:13;;;;;;;1.73;1.30;;;11.30;1.00;;;;;;4974278;28;20431;-77
2023/01/14 13:13:42;;;;;;;2.93;1.10;;;11.30;1.00;;;;;;4967792;28;20487;-77
2023/01/14 13:16:38;;;;;;;4.00;1.30;;;11.30;1.00;;;;;;4969526;28;20509;-77
2023/01/14 13:19:25;;;;;;;2.37;1.20;;;11.30;1.00;;;;;;4970329;28;20451;-77
2023/01/14 13:21:59;;;;;;;1.53;1.30;;;11.20;1.00;;;;;;4969940;28;20466;-78
2023/01/14 13:24:27;;;;;;;1.43;1.30;;;11.20;1.00;;;;;;4973111;28;20419;-77
2023/01/14 13:26:55;;;;;;;2.63;1.50;;;11.20;1.00;;;;;;4974747;28;20469;-76
2023/01/14 13:29:24;;;;;;;2.80;1.30;;;11.20;1.00;;;;;;4973389;28;20466;-77
2023/01/14 13:31:50;;;;;;;2.30;1.57;;;11.20;1.00;;;;;;4971563;28;20797;-77
2023/01/14 13:34:22;;;;;;;2.73;1.70;;;11.20;1.00;;;;;;4972717;28;20434;-77
2023/01/14 13:36:48;;;;;;;1.83;1.37;;;11.20;1.00;;;;;;4967518;28;20219;-77
2023/01/14 13:39:20;;;;;;;3.20;1.63;;;11.20;1.00;;;;;;4971982;28;20458;-77
2023/01/14 13:41:51;;;;;;;3.27;1.27;;;11.20;1.00;;;;;;4974032;28;20489;-76
2023/01/14 13:44:27;;;;;;;3.90;1.60;;;11.20;1.00;;;;;;4973878;28;20431;-76
2023/01/14 13:46:55;;;;;;;2.53;1.50;;;11.20;1.00;;;;;;4972038;28;20430;-76
2023/01/14 13:49:30;;;;;;;1.87;1.60;;;11.20;1.00;;;;;;4973937;28;20494;-77
2023/01/14 13:52:03;;;;;;;2.40;1.50;;;11.30;1.00;;;;;;4973115;28;20466;-77
2023/01/14 13:54:33;;;;;;;3.70;1.50;;;11.30;1.00;;;;;;4973816;28;20415;-77
2023/01/14 13:57:28;;;;;;;2.77;1.90;;;11.30;1.00;;;;;;4974472;28;20427;-77